sensor_id;sensor_type;location;lat;lon;timestamp;P1;P2;P0
26720;PMS1003;15950;51.112;6.966;2024-02-21T00:02:31;008;006;
26720;PMS1003;15950;51.112;6.966;2024-02-21T00:05:31;005;003;
26720;PMS1003;15950;51.112;6.966;2024-02-21T00:08:31;007;005;
26720;PMS1003;15950;51.112;6.966;2024-02-21T00:11:31;005;003;
26720;PMS1003;15950;51.112;6.966;2024-02-21T00:14:31;006;004;
26720;PMS1003;15950;51.112;6.966;2024-02-21T00:17:31;007;005;
26720;PMS1003;15950;51.112;6.966;2024-02-21T00:20:31;007;005;
26720;PMS1003;15950;51.112;6.966;2024-02-21T00:23:31;008;006;
26720;PMS1003;15950;51.112;6.966;2024-02-21T00:26:31;010;008;
26720;PMS1003;15950;51.112;6.966;2024-02-21T00:29:31;005;003;
26720;PMS1003;15950;51.112;6.966;2024-02-21T00:32:31;007;005;
26720;PMS1003;15950;51.112;6.966;2024-02-21T00:35:31;009;006;
26720;PMS1003;15950;51.112;6.966;2024-02-21T00:38:31;003;002;
26720;PMS1003;15950;51.112;6.966;2024-02-21T00:41:31;006;004;
26720;PMS1003;15950;51.112;6.966;2024-02-21T00:44:31;006;004;
26720;PMS1003;15950;51.112;6.966;2024-02-21T00:47:31;007;005;
26720;PMS1003;15950;51.112;6.966;2024-02-21T00:50:31;009;007;
26720;PMS1003;15950;51.112;6.966;2024-02-21T00:53:31;006;004;
26720;PMS1003;15950;51.112;6.966;2024-02-21T00:56:31;013;009;
26720;PMS1003;15950;51.112;6.966;2024-02-21T00:59:31;007;005;
26720;PMS1003;15950;51.112;6.966;2024-02-21T01:02:31;012;008;
26720;PMS1003;15950;51.112;6.966;2024-02-21T01:05:31;009;006;
26720;PMS1003;15950;51.112;6.966;2024-02-21T01:08:31;003;002;
26720;PMS1003;15950;51.112;6.966;2024-02-21T01:11:31;004;003;
26720;PMS1003;15950;51.112;6.966;2024-02-21T01:14:31;011;009;
26720;PMS1003;15950;51.112;6.966;2024-02-21T01:17:31;005;003;
26720;PMS1003;15950;51.112;6.966;2024-02-21T01:20:31;005;003;
26720;PMS1003;15950;51.112;6.966;2024-02-21T01:23:31;005;004;
26720;PMS1003;15950;51.112;6.966;2024-02-21T01:26:31;007;005;
26720;PMS1003;15950;51.112;6.966;2024-02-21T01:29:31;003;002;
26720;PMS1003;15950;51.112;6.966;2024-02-21T01:32:31;004;004;
26720;PMS1003;15950;51.112;6.966;2024-02-21T01:35:31;006;004;
26720;PMS1003;15950;51.112;6.966;2024-02-21T01:38:31;005;004;
26720;PMS1003;15950;51.112;6.966;2024-02-21T01:41:31;006;004;
26720;PMS1003;15950;51.112;6.966;2024-02-21T01:44:31;005;005;
26720;PMS1003;15950;51.112;6.966;2024-02-21T01:47:31;006;004;
26720;PMS1003;15950;51.112;6.966;2024-02-21T01:50:31;005;005;
26720;PMS1003;15950;51.112;6.966;2024-02-21T01:53:35;005;003;
26720;PMS1003;15950;51.112;6.966;2024-02-21T01:56:31;003;002;
26720;PMS1003;15950;51.112;6.966;2024-02-21T01:59:31;005;004;
26720;PMS1003;15950;51.112;6.966;2024-02-21T02:02:31;007;005;
26720;PMS1003;15950;51.112;6.966;2024-02-21T02:05:31;008;007;
26720;PMS1003;15950;51.112;6.966;2024-02-21T02:08:31;006;004;
26720;PMS1003;15950;51.112;6.966;2024-02-21T02:11:31;003;002;
26720;PMS1003;15950;51.112;6.966;2024-02-21T02:14:31;004;003;
26720;PMS1003;15950;51.112;6.966;2024-02-21T02:17:31;008;006;
26720;PMS1003;15950;51.112;6.966;2024-02-21T02:20:31;006;004;
26720;PMS1003;15950;51.112;6.966;2024-02-21T02:23:31;003;002;
26720;PMS1003;15950;51.112;6.966;2024-02-21T02:26:31;009;006;
26720;PMS1003;15950;51.112;6.966;2024-02-21T02:29:32;008;006;
26720;PMS1003;15950;51.112;6.966;2024-02-21T02:32:31;005;003;
26720;PMS1003;15950;51.112;6.966;2024-02-21T02:35:31;006;004;
26720;PMS1003;15950;51.112;6.966;2024-02-21T02:38:31;005;003;
26720;PMS1003;15950;51.112;6.966;2024-02-21T02:41:31;008;006;
26720;PMS1003;15950;51.112;6.966;2024-02-21T02:44:31;004;003;
26720;PMS1003;15950;51.112;6.966;2024-02-21T02:47:31;012;008;
26720;PMS1003;15950;51.112;6.966;2024-02-21T02:50:31;007;005;
26720;PMS1003;15950;51.112;6.966;2024-02-21T02:53:31;010;008;
26720;PMS1003;15950;51.112;6.966;2024-02-21T02:56:31;007;005;
26720;PMS1003;15950;51.112;6.966;2024-02-21T02:59:31;002;001;
26720;PMS1003;15950;51.112;6.966;2024-02-21T03:02:31;003;002;
26720;PMS1003;15950;51.112;6.966;2024-02-21T03:05:31;008;007;
26720;PMS1003;15950;51.112;6.966;2024-02-21T03:08:31;007;005;
26720;PMS1003;15950;51.112;6.966;2024-02-21T03:11:31;005;003;
26720;PMS1003;15950;51.112;6.966;2024-02-21T03:14:32;006;004;
26720;PMS1003;15950;51.112;6.966;2024-02-21T03:17:32;004;003;
26720;PMS1003;15950;51.112;6.966;2024-02-21T03:20:31;005;005;
26720;PMS1003;15950;51.112;6.966;2024-02-21T03:23:31;012;009;
26720;PMS1003;15950;51.112;6.966;2024-02-21T03:26:31;011;008;
26720;PMS1003;15950;51.112;6.966;2024-02-21T03:29:31;013;009;
26720;PMS1003;15950;51.112;6.966;2024-02-21T03:32:31;007;005;
26720;PMS1003;15950;51.112;6.966;2024-02-21T03:35:31;005;003;
26720;PMS1003;15950;51.112;6.966;2024-02-21T03:38:31;004;003;
26720;PMS1003;15950;51.112;6.966;2024-02-21T03:41:31;002;001;
26720;PMS1003;15950;51.112;6.966;2024-02-21T03:44:31;005;005;
26720;PMS1003;15950;51.112;6.966;2024-02-21T03:47:31;004;003;
26720;PMS1003;15950;51.112;6.966;2024-02-21T03:50:31;006;004;
26720;PMS1003;15950;51.112;6.966;2024-02-21T03:53:31;002;001;
26720;PMS1003;15950;51.112;6.966;2024-02-21T03:56:31;003;002;
26720;PMS1003;15950;51.112;6.966;2024-02-21T03:59:31;003;002;
26720;PMS1003;15950;51.112;6.966;2024-02-21T04:02:31;005;004;
26720;PMS1003;15950;51.112;6.966;2024-02-21T04:05:31;005;003;
26720;PMS1003;15950;51.112;6.966;2024-02-21T04:08:31;005;003;
26720;PMS1003;15950;51.112;6.966;2024-02-21T04:11:31;005;004;
26720;PMS1003;15950;51.112;6.966;2024-02-21T04:14:31;003;002;
26720;PMS1003;15950;51.112;6.966;2024-02-21T04:17:31;006;004;
26720;PMS1003;15950;51.112;6.966;2024-02-21T04:20:31;010;007;
26720;PMS1003;15950;51.112;6.966;2024-02-21T04:23:31;007;005;
26720;PMS1003;15950;51.112;6.966;2024-02-21T04:26:31;004;003;
26720;PMS1003;15950;51.112;6.966;2024-02-21T04:29:31;006;005;
26720;PMS1003;15950;51.112;6.966;2024-02-21T04:32:31;003;002;
26720;PMS1003;15950;51.112;6.966;2024-02-21T04:35:31;006;004;
26720;PMS1003;15950;51.112;6.966;2024-02-21T04:38:31;006;004;
26720;PMS1003;15950;51.112;6.966;2024-02-21T04:41:31;003;002;
26720;PMS1003;15950;51.112;6.966;2024-02-21T04:44:31;004;004;
26720;PMS1003;15950;51.112;6.966;2024-02-21T04:47:31;003;002;
26720;PMS1003;15950;51.112;6.966;2024-02-21T04:50:31;003;002;
26720;PMS1003;15950;51.112;6.966;2024-02-21T04:53:31;006;004;
26720;PMS1003;15950;51.112;6.966;2024-02-21T04:56:31;002;001;
26720;PMS1003;15950;51.112;6.966;2024-02-21T04:59:31;004;004;
26720;PMS1003;15950;51.112;6.966;2024-02-21T05:02:31;007;006;
26720;PMS1003;15950;51.112;6.966;2024-02-21T05:05:31;005;003;
26720;PMS1003;15950;51.112;6.966;2024-02-21T05:08:31;002;001;
26720;PMS1003;15950;51.112;6.966;2024-02-21T05:11:31;003;002;
26720;PMS1003;15950;51.112;6.966;2024-02-21T05:14:31;003;002;
26720;PMS1003;15950;51.112;6.966;2024-02-21T05:17:31;005;003;
26720;PMS1003;15950;51.112;6.966;2024-02-21T05:20:31;007;005;
26720;PMS1003;15950;51.112;6.966;2024-02-21T05:23:31;003;002;
26720;PMS1003;15950;51.112;6.966;2024-02-21T05:26:31;006;004;
26720;PMS1003;15950;51.112;6.966;2024-02-21T05:29:32;003;002;
26720;PMS1003;15950;51.112;6.966;2024-02-21T05:32:31;002;002;
26720;PMS1003;15950;51.112;6.966;2024-02-21T05:35:31;005;005;
26720;PMS1003;15950;51.112;6.966;2024-02-21T05:38:31;005;003;
26720;PMS1003;15950;51.112;6.966;2024-02-21T05:41:31;006;004;
26720;PMS1003;15950;51.112;6.966;2024-02-21T05:44:31;006;004;
26720;PMS1003;15950;51.112;6.966;2024-02-21T05:47:31;007;007;
26720;PMS1003;15950;51.112;6.966;2024-02-21T05:50:31;004;003;
26720;PMS1003;15950;51.112;6.966;2024-02-21T05:53:31;002;001;
26720;PMS1003;15950;51.112;6.966;2024-02-21T05:56:31;003;002;
26720;PMS1003;15950;51.112;6.966;2024-02-21T05:59:31;005;003;
26720;PMS1003;15950;51.112;6.966;2024-02-21T06:02:31;004;003;
26720;PMS1003;15950;51.112;6.966;2024-02-21T06:05:31;005;003;
26720;PMS1003;15950;51.112;6.966;2024-02-21T06:08:31;002;002;
26720;PMS1003;15950;51.112;6.966;2024-02-21T06:11:31;002;001;
26720;PMS1003;15950;51.112;6.966;2024-02-21T06:14:31;001;001;
26720;PMS1003;15950;51.112;6.966;2024-02-21T06:17:31;002;001;
26720;PMS1003;15950;51.112;6.966;2024-02-21T06:20:31;003;002;
26720;PMS1003;15950;51.112;6.966;2024-02-21T06:23:31;002;001;
26720;PMS1003;15950;51.112;6.966;2024-02-21T06:26:31;002;002;
26720;PMS1003;15950;51.112;6.966;2024-02-21T06:29:31;000;000;
26720;PMS1003;15950;51.112;6.966;2024-02-21T06:32:31;004;003;
26720;PMS1003;15950;51.112;6.966;2024-02-21T06:35:31;002;001;
26720;PMS1003;15950;51.112;6.966;2024-02-21T06:38:31;003;002;
26720;PMS1003;15950;51.112;6.966;2024-02-21T06:41:31;003;002;
26720;PMS1003;15950;51.112;6.966;2024-02-21T06:44:31;000;000;
26720;PMS1003;15950;51.112;6.966;2024-02-21T06:47:31;006;005;
26720;PMS1003;15950;51.112;6.966;2024-02-21T06:50:31;003;002;
26720;PMS1003;15950;51.112;6.966;2024-02-21T06:53:31;003;002;
26720;PMS1003;15950;51.112;6.966;2024-02-21T06:56:31;002;001;
26720;PMS1003;15950;51.112;6.966;2024-02-21T06:59:31;002;002;
26720;PMS1003;15950;51.112;6.966;2024-02-21T07:02:31;002;002;
26720;PMS1003;15950;51.112;6.966;2024-02-21T07:05:31;001;001;
26720;PMS1003;15950;51.112;6.966;2024-02-21T07:08:31;000;000;
26720;PMS1003;15950;51.112;6.966;2024-02-21T07:11:31;000;000;
26720;PMS1003;15950;51.112;6.966;2024-02-21T07:14:35;002;002;
26720;PMS1003;15950;51.112;6.966;2024-02-21T07:17:31;000;000;
26720;PMS1003;15950;51.112;6.966;2024-02-21T07:20:31;002;002;
26720;PMS1003;15950;51.112;6.966;2024-02-21T07:23:31;001;001;
26720;PMS1003;15950;51.112;6.966;2024-02-21T07:26:31;002;001;
26720;PMS1003;15950;51.112;6.966;2024-02-21T07:29:31;003;002;
26720;PMS1003;15950;51.112;6.966;2024-02-21T07:32:31;000;000;
26720;PMS1003;15950;51.112;6.966;2024-02-21T07:35:31;002;001;
26720;PMS1003;15950;51.112;6.966;2024-02-21T07:38:31;002;001;
26720;PMS1003;15950;51.112;6.966;2024-02-21T07:41:31;005;004;
26720;PMS1003;15950;51.112;6.966;2024-02-21T07:44:31;000;000;
26720;PMS1003;15950;51.112;6.966;2024-02-21T07:47:31;002;001;
26720;PMS1003;15950;51.112;6.966;2024-02-21T07:50:31;000;000;
26720;PMS1003;15950;51.112;6.966;2024-02-21T07:53:31;002;001;
26720;PMS1003;15950;51.112;6.966;2024-02-21T07:56:31;003;003;
26720;PMS1003;15950;51.112;6.966;2024-02-21T07:59:31;003;002;
26720;PMS1003;15950;51.112;6.966;2024-02-21T08:02:31;005;004;
26720;PMS1003;15950;51.112;6.966;2024-02-21T08:05:33;003;002;
26720;PMS1003;15950;51.112;6.966;2024-02-21T08:08:31;005;004;
26720;PMS1003;15950;51.112;6.966;2024-02-21T08:11:31;003;002;
26720;PMS1003;15950;51.112;6.966;2024-02-21T08:14:32;002;001;
26720;PMS1003;15950;51.112;6.966;2024-02-21T08:17:31;003;002;
26720;PMS1003;15950;51.112;6.966;2024-02-21T08:20:31;017;012;
26720;PMS1003;15950;51.112;6.966;2024-02-21T08:23:31;005;003;
26720;PMS1003;15950;51.112;6.966;2024-02-21T08:26:31;005;003;
26720;PMS1003;15950;51.112;6.966;2024-02-21T08:29:31;003;002;
26720;PMS1003;15950;51.112;6.966;2024-02-21T08:32:31;002;001;
26720;PMS1003;15950;51.112;6.966;2024-02-21T08:35:31;001;001;
26720;PMS1003;15950;51.112;6.966;2024-02-21T08:38:31;005;003;
26720;PMS1003;15950;51.112;6.966;2024-02-21T08:41:31;005;003;
26720;PMS1003;15950;51.112;6.966;2024-02-21T08:44:31;004;003;
26720;PMS1003;15950;51.112;6.966;2024-02-21T08:47:31;005;004;
26720;PMS1003;15950;51.112;6.966;2024-02-21T08:50:31;001;001;
26720;PMS1003;15950;51.112;6.966;2024-02-21T08:53:31;002;001;
26720;PMS1003;15950;51.112;6.966;2024-02-21T08:56:31;002;001;
26720;PMS1003;15950;51.112;6.966;2024-02-21T08:59:31;002;001;
26720;PMS1003;15950;51.112;6.966;2024-02-21T09:02:31;005;003;
26720;PMS1003;15950;51.112;6.966;2024-02-21T09:05:31;005;003;
26720;PMS1003;15950;51.112;6.966;2024-02-21T09:08:31;000;000;
26720;PMS1003;15950;51.112;6.966;2024-02-21T09:11:31;002;002;
26720;PMS1003;15950;51.112;6.966;2024-02-21T09:14:31;003;002;
26720;PMS1003;15950;51.112;6.966;2024-02-21T09:17:31;004;003;
26720;PMS1003;15950;51.112;6.966;2024-02-21T09:20:31;003;002;
26720;PMS1003;15950;51.112;6.966;2024-02-21T09:23:31;003;002;
26720;PMS1003;15950;51.112;6.966;2024-02-21T09:26:31;001;001;
26720;PMS1003;15950;51.112;6.966;2024-02-21T09:29:31;002;001;
26720;PMS1003;15950;51.112;6.966;2024-02-21T09:32:31;002;001;
26720;PMS1003;15950;51.112;6.966;2024-02-21T09:35:31;000;000;
26720;PMS1003;15950;51.112;6.966;2024-02-21T09:38:31;003;002;
26720;PMS1003;15950;51.112;6.966;2024-02-21T09:41:31;005;003;
26720;PMS1003;15950;51.112;6.966;2024-02-21T09:44:33;000;000;
26720;PMS1003;15950;51.112;6.966;2024-02-21T09:47:38;002;002;
26720;PMS1003;15950;51.112;6.966;2024-02-21T09:50:31;002;002;
26720;PMS1003;15950;51.112;6.966;2024-02-21T09:53:31;000;000;
26720;PMS1003;15950;51.112;6.966;2024-02-21T09:56:31;004;003;
26720;PMS1003;15950;51.112;6.966;2024-02-21T09:59:31;000;000;
26720;PMS1003;15950;51.112;6.966;2024-02-21T10:02:31;000;000;
26720;PMS1003;15950;51.112;6.966;2024-02-21T10:05:31;000;000;
26720;PMS1003;15950;51.112;6.966;2024-02-21T10:08:31;000;000;
26720;PMS1003;15950;51.112;6.966;2024-02-21T10:11:31;003;002;
26720;PMS1003;15950;51.112;6.966;2024-02-21T10:14:31;003;002;
26720;PMS1003;15950;51.112;6.966;2024-02-21T10:17:34;002;001;
26720;PMS1003;15950;51.112;6.966;2024-02-21T10:20:31;000;000;
26720;PMS1003;15950;51.112;6.966;2024-02-21T10:26:31;002;001;
26720;PMS1003;15950;51.112;6.966;2024-02-21T10:29:31;000;000;
26720;PMS1003;15950;51.112;6.966;2024-02-21T10:32:31;002;001;
26720;PMS1003;15950;51.112;6.966;2024-02-21T10:35:32;003;002;
26720;PMS1003;15950;51.112;6.966;2024-02-21T10:38:31;003;002;
26720;PMS1003;15950;51.112;6.966;2024-02-21T10:41:31;005;003;
26720;PMS1003;15950;51.112;6.966;2024-02-21T10:44:31;003;002;
26720;PMS1003;15950;51.112;6.966;2024-02-21T10:47:31;002;001;
26720;PMS1003;15950;51.112;6.966;2024-02-21T10:50:31;000;000;
26720;PMS1003;15950;51.112;6.966;2024-02-21T10:56:31;002;001;
26720;PMS1003;15950;51.112;6.966;2024-02-21T10:59:31;002;001;
26720;PMS1003;15950;51.112;6.966;2024-02-21T11:02:31;000;000;
26720;PMS1003;15950;51.112;6.966;2024-02-21T11:05:31;000;000;
26720;PMS1003;15950;51.112;6.966;2024-02-21T11:08:31;000;000;
26720;PMS1003;15950;51.112;6.966;2024-02-21T11:11:34;000;000;
26720;PMS1003;15950;51.112;6.966;2024-02-21T11:14:31;000;000;
26720;PMS1003;15950;51.112;6.966;2024-02-21T11:17:31;000;000;
26720;PMS1003;15950;51.112;6.966;2024-02-21T11:20:34;002;001;
26720;PMS1003;15950;51.112;6.966;2024-02-21T11:23:31;000;000;
26720;PMS1003;15950;51.112;6.966;2024-02-21T11:26:31;001;001;
26720;PMS1003;15950;51.112;6.966;2024-02-21T11:29:31;003;003;
26720;PMS1003;15950;51.112;6.966;2024-02-21T11:32:31;003;002;
26720;PMS1003;15950;51.112;6.966;2024-02-21T11:35:32;003;002;
26720;PMS1003;15950;51.112;6.966;2024-02-21T11:38:31;000;000;
26720;PMS1003;15950;51.112;6.966;2024-02-21T11:41:31;003;002;
26720;PMS1003;15950;51.112;6.966;2024-02-21T11:44:31;000;000;
26720;PMS1003;15950;51.112;6.966;2024-02-21T11:47:31;000;000;
26720;PMS1003;15950;51.112;6.966;2024-02-21T11:50:31;000;000;
26720;PMS1003;15950;51.112;6.966;2024-02-21T11:53:31;000;000;
26720;PMS1003;15950;51.112;6.966;2024-02-21T11:56:31;001;001;
26720;PMS1003;15950;51.112;6.966;2024-02-21T11:59:31;002;001;
26720;PMS1003;15950;51.112;6.966;2024-02-21T12:02:31;002;001;
26720;PMS1003;15950;51.112;6.966;2024-02-21T12:05:31;000;000;
26720;PMS1003;15950;51.112;6.966;2024-02-21T12:11:31;006;004;
26720;PMS1003;15950;51.112;6.966;2024-02-21T12:14:32;000;000;
26720;PMS1003;15950;51.112;6.966;2024-02-21T12:20:31;000;000;
26720;PMS1003;15950;51.112;6.966;2024-02-21T12:23:31;001;001;
26720;PMS1003;15950;51.112;6.966;2024-02-21T12:26:31;000;000;
26720;PMS1003;15950;51.112;6.966;2024-02-21T12:29:31;000;000;
26720;PMS1003;15950;51.112;6.966;2024-02-21T12:32:31;000;000;
26720;PMS1003;15950;51.112;6.966;2024-02-21T12:35:31;000;000;
26720;PMS1003;15950;51.112;6.966;2024-02-21T12:38:31;002;002;
26720;PMS1003;15950;51.112;6.966;2024-02-21T12:41:31;000;000;
26720;PMS1003;15950;51.112;6.966;2024-02-21T12:44:31;000;000;
26720;PMS1003;15950;51.112;6.966;2024-02-21T12:47:31;005;003;
26720;PMS1003;15950;51.112;6.966;2024-02-21T12:50:31;000;000;
26720;PMS1003;15950;51.112;6.966;2024-02-21T12:53:31;000;000;
26720;PMS1003;15950;51.112;6.966;2024-02-21T12:56:31;001;001;
26720;PMS1003;15950;51.112;6.966;2024-02-21T12:59:31;001;001;
26720;PMS1003;15950;51.112;6.966;2024-02-21T13:02:31;000;000;
26720;PMS1003;15950;51.112;6.966;2024-02-21T13:05:31;000;000;
26720;PMS1003;15950;51.112;6.966;2024-02-21T13:08:31;000;000;
26720;PMS1003;15950;51.112;6.966;2024-02-21T13:11:31;000;000;
26720;PMS1003;15950;51.112;6.966;2024-02-21T13:14:31;001;001;
26720;PMS1003;15950;51.112;6.966;2024-02-21T13:17:31;000;000;
26720;PMS1003;15950;51.112;6.966;2024-02-21T13:20:31;002;001;
26720;PMS1003;15950;51.112;6.966;2024-02-21T13:23:31;000;000;
26720;PMS1003;15950;51.112;6.966;2024-02-21T13:26:31;000;000;
26720;PMS1003;15950;51.112;6.966;2024-02-21T13:29:31;002;001;
26720;PMS1003;15950;51.112;6.966;2024-02-21T13:32:31;000;000;
26720;PMS1003;15950;51.112;6.966;2024-02-21T13:35:31;000;000;
26720;PMS1003;15950;51.112;6.966;2024-02-21T13:38:31;000;000;
26720;PMS1003;15950;51.112;6.966;2024-02-21T13:41:31;002;002;
26720;PMS1003;15950;51.112;6.966;2024-02-21T13:44:31;000;000;
26720;PMS1003;15950;51.112;6.966;2024-02-21T13:47:31;000;000;
26720;PMS1003;15950;51.112;6.966;2024-02-21T13:50:31;000;000;
26720;PMS1003;15950;51.112;6.966;2024-02-21T13:53:31;002;001;
26720;PMS1003;15950;51.112;6.966;2024-02-21T13:56:31;000;000;
26720;PMS1003;15950;51.112;6.966;2024-02-21T13:59:31;000;000;
26720;PMS1003;15950;51.112;6.966;2024-02-21T14:02:31;000;000;
26720;PMS1003;15950;51.112;6.966;2024-02-21T14:05:31;000;000;
26720;PMS1003;15950;51.112;6.966;2024-02-21T14:08:31;001;001;
26720;PMS1003;15950;51.112;6.966;2024-02-21T14:11:31;000;000;
26720;PMS1003;15950;51.112;6.966;2024-02-21T14:14:31;000;000;
26720;PMS1003;15950;51.112;6.966;2024-02-21T14:17:31;000;000;
26720;PMS1003;15950;51.112;6.966;2024-02-21T14:20:31;000;000;
26720;PMS1003;15950;51.112;6.966;2024-02-21T14:23:31;003;002;
26720;PMS1003;15950;51.112;6.966;2024-02-21T14:26:31;000;000;
26720;PMS1003;15950;51.112;6.966;2024-02-21T14:29:31;000;000;
26720;PMS1003;15950;51.112;6.966;2024-02-21T14:32:31;000;000;
26720;PMS1003;15950;51.112;6.966;2024-02-21T14:35:31;000;000;
26720;PMS1003;15950;51.112;6.966;2024-02-21T14:38:31;001;001;
26720;PMS1003;15950;51.112;6.966;2024-02-21T14:41:31;002;001;
26720;PMS1003;15950;51.112;6.966;2024-02-21T14:44:31;000;000;
26720;PMS1003;15950;51.112;6.966;2024-02-21T14:47:31;000;000;
26720;PMS1003;15950;51.112;6.966;2024-02-21T14:50:31;001;001;
26720;PMS1003;15950;51.112;6.966;2024-02-21T14:53:31;004;004;
26720;PMS1003;15950;51.112;6.966;2024-02-21T14:56:31;000;000;
26720;PMS1003;15950;51.112;6.966;2024-02-21T14:59:31;000;000;
26720;PMS1003;15950;51.112;6.966;2024-02-21T15:02:31;002;002;
26720;PMS1003;15950;51.112;6.966;2024-02-21T15:05:31;000;000;
26720;PMS1003;15950;51.112;6.966;2024-02-21T15:08:31;000;000;
26720;PMS1003;15950;51.112;6.966;2024-02-21T15:11:31;000;000;
26720;PMS1003;15950;51.112;6.966;2024-02-21T15:14:31;000;000;
26720;PMS1003;15950;51.112;6.966;2024-02-21T15:17:31;000;000;
26720;PMS1003;15950;51.112;6.966;2024-02-21T15:20:31;000;000;
26720;PMS1003;15950;51.112;6.966;2024-02-21T15:23:31;003;002;
26720;PMS1003;15950;51.112;6.966;2024-02-21T15:26:31;000;000;
26720;PMS1003;15950;51.112;6.966;2024-02-21T15:29:31;000;000;
26720;PMS1003;15950;51.112;6.966;2024-02-21T15:32:31;002;002;
26720;PMS1003;15950;51.112;6.966;2024-02-21T15:35:31;000;000;
26720;PMS1003;15950;51.112;6.966;2024-02-21T15:38:31;000;000;
26720;PMS1003;15950;51.112;6.966;2024-02-21T15:41:31;000;000;
26720;PMS1003;15950;51.112;6.966;2024-02-21T15:44:31;000;000;
26720;PMS1003;15950;51.112;6.966;2024-02-21T15:47:31;002;001;
26720;PMS1003;15950;51.112;6.966;2024-02-21T15:50:31;000;000;
26720;PMS1003;15950;51.112;6.966;2024-02-21T15:53:31;000;000;
26720;PMS1003;15950;51.112;6.966;2024-02-21T15:56:31;000;000;
26720;PMS1003;15950;51.112;6.966;2024-02-21T15:59:31;000;000;
26720;PMS1003;15950;51.112;6.966;2024-02-21T16:02:31;000;000;
26720;PMS1003;15950;51.112;6.966;2024-02-21T16:05:31;000;000;
26720;PMS1003;15950;51.112;6.966;2024-02-21T16:08:31;000;000;
26720;PMS1003;15950;51.112;6.966;2024-02-21T16:11:31;000;000;
26720;PMS1003;15950;51.112;6.966;2024-02-21T16:14:31;001;001;
26720;PMS1003;15950;51.112;6.966;2024-02-21T16:17:31;000;000;
26720;PMS1003;15950;51.112;6.966;2024-02-21T16:20:31;000;000;
26720;PMS1003;15950;51.112;6.966;2024-02-21T16:23:31;000;000;
26720;PMS1003;15950;51.112;6.966;2024-02-21T16:26:33;000;000;
26720;PMS1003;15950;51.112;6.966;2024-02-21T16:29:31;000;000;
26720;PMS1003;15950;51.112;6.966;2024-02-21T16:32:31;000;000;
26720;PMS1003;15950;51.112;6.966;2024-02-21T16:35:31;000;000;
26720;PMS1003;15950;51.112;6.966;2024-02-21T16:38:31;000;000;
26720;PMS1003;15950;51.112;6.966;2024-02-21T16:41:31;000;000;
26720;PMS1003;15950;51.112;6.966;2024-02-21T16:44:31;000;000;
26720;PMS1003;15950;51.112;6.966;2024-02-21T16:47:31;000;000;
26720;PMS1003;15950;51.112;6.966;2024-02-21T16:50:31;000;000;
26720;PMS1003;15950;51.112;6.966;2024-02-21T16:53:31;000;000;
26720;PMS1003;15950;51.112;6.966;2024-02-21T16:56:31;000;000;
26720;PMS1003;15950;51.112;6.966;2024-02-21T16:59:31;001;001;
26720;PMS1003;15950;51.112;6.966;2024-02-21T17:02:31;000;000;
26720;PMS1003;15950;51.112;6.966;2024-02-21T17:05:31;000;000;
26720;PMS1003;15950;51.112;6.966;2024-02-21T17:08:31;000;000;
26720;PMS1003;15950;51.112;6.966;2024-02-21T17:11:31;000;000;
26720;PMS1003;15950;51.112;6.966;2024-02-21T17:14:31;000;000;
26720;PMS1003;15950;51.112;6.966;2024-02-21T17:17:31;002;001;
26720;PMS1003;15950;51.112;6.966;2024-02-21T17:20:31;000;000;
26720;PMS1003;15950;51.112;6.966;2024-02-21T17:23:31;000;000;
26720;PMS1003;15950;51.112;6.966;2024-02-21T17:26:31;000;000;
26720;PMS1003;15950;51.112;6.966;2024-02-21T17:29:31;000;000;
26720;PMS1003;15950;51.112;6.966;2024-02-21T17:32:31;001;001;
26720;PMS1003;15950;51.112;6.966;2024-02-21T17:35:31;000;000;
26720;PMS1003;15950;51.112;6.966;2024-02-21T17:38:31;000;000;
26720;PMS1003;15950;51.112;6.966;2024-02-21T17:41:31;000;000;
26720;PMS1003;15950;51.112;6.966;2024-02-21T17:44:31;000;000;
26720;PMS1003;15950;51.112;6.966;2024-02-21T17:47:31;001;001;
26720;PMS1003;15950;51.112;6.966;2024-02-21T17:50:31;002;001;
26720;PMS1003;15950;51.112;6.966;2024-02-21T17:53:31;000;000;
26720;PMS1003;15950;51.112;6.966;2024-02-21T17:56:31;000;000;
26720;PMS1003;15950;51.112;6.966;2024-02-21T17:59:31;000;000;
26720;PMS1003;15950;51.112;6.966;2024-02-21T18:02:31;000;000;
26720;PMS1003;15950;51.112;6.966;2024-02-21T18:05:31;000;000;
26720;PMS1003;15950;51.112;6.966;2024-02-21T18:08:31;000;000;
26720;PMS1003;15950;51.112;6.966;2024-02-21T18:11:31;000;000;
26720;PMS1003;15950;51.112;6.966;2024-02-21T18:14:31;001;001;
26720;PMS1003;15950;51.112;6.966;2024-02-21T18:17:31;000;000;
26720;PMS1003;15950;51.112;6.966;2024-02-21T18:20:31;000;000;
26720;PMS1003;15950;51.112;6.966;2024-02-21T18:23:31;000;000;
26720;PMS1003;15950;51.112;6.966;2024-02-21T18:26:31;002;001;
26720;PMS1003;15950;51.112;6.966;2024-02-21T18:29:31;000;000;
26720;PMS1003;15950;51.112;6.966;2024-02-21T18:32:31;000;000;
26720;PMS1003;15950;51.112;6.966;2024-02-21T18:35:31;000;000;
26720;PMS1003;15950;51.112;6.966;2024-02-21T18:38:31;000;000;
26720;PMS1003;15950;51.112;6.966;2024-02-21T18:41:31;000;000;
26720;PMS1003;15950;51.112;6.966;2024-02-21T18:44:31;000;000;
26720;PMS1003;15950;51.112;6.966;2024-02-21T18:47:31;000;000;
26720;PMS1003;15950;51.112;6.966;2024-02-21T18:50:31;000;000;
26720;PMS1003;15950;51.112;6.966;2024-02-21T18:53:31;000;000;
26720;PMS1003;15950;51.112;6.966;2024-02-21T18:56:31;000;000;
26720;PMS1003;15950;51.112;6.966;2024-02-21T18:59:31;000;000;
26720;PMS1003;15950;51.112;6.966;2024-02-21T19:02:31;002;001;
26720;PMS1003;15950;51.112;6.966;2024-02-21T19:05:31;000;000;
26720;PMS1003;15950;51.112;6.966;2024-02-21T19:08:31;000;000;
26720;PMS1003;15950;51.112;6.966;2024-02-21T19:11:31;000;000;
26720;PMS1003;15950;51.112;6.966;2024-02-21T19:14:31;002;001;
26720;PMS1003;15950;51.112;6.966;2024-02-21T19:17:31;003;002;
26720;PMS1003;15950;51.112;6.966;2024-02-21T19:20:31;000;000;
26720;PMS1003;15950;51.112;6.966;2024-02-21T19:23:31;002;001;
26720;PMS1003;15950;51.112;6.966;2024-02-21T19:26:31;003;002;
26720;PMS1003;15950;51.112;6.966;2024-02-21T19:29:31;000;000;